createdAt,value
2019-01-26T00:00:10.347Z,177.23
2019-01-26T00:02:38.722Z,187.97
2019-01-26T00:05:08.424Z,177.60
2019-01-26T00:07:36.726Z,191.53
2019-01-26T00:10:07.931Z,186.07
2019-01-26T00:12:36.265Z,208.67
2019-01-26T00:15:07.796Z,189.77
2019-01-26T00:17:36.099Z,198.47
2019-01-26T00:20:07.536Z,214.03
2019-01-26T00:22:35.829Z,201.00
2019-01-26T00:25:04.953Z,199.13
2019-01-26T00:27:33.261Z,192.83
2019-01-26T00:30:01.627Z,238.67
2019-01-26T00:32:30.014Z,233.33
2019-01-26T00:34:58.457Z,239.87
2019-01-26T00:37:27.154Z,217.73
2019-01-26T00:39:55.523Z,184.10
2019-01-26T00:42:23.842Z,210.63
2019-01-26T00:44:52.228Z,186.27
2019-01-26T00:47:20.597Z,228.30
2019-01-26T00:49:48.985Z,203.57
2019-01-26T00:52:17.355Z,226.10
2019-01-26T00:54:45.689Z,228.03
2019-01-26T00:57:14.053Z,244.07
2019-01-26T00:59:42.440Z,240.27
2019-01-26T01:02:11.175Z,207.27
2019-01-26T01:04:39.469Z,199.83
2019-01-26T01:07:07.859Z,196.67
2019-01-26T01:09:36.164Z,219.90
2019-01-26T01:12:04.515Z,219.10
2019-01-26T01:14:32.899Z,202.23
2019-01-26T01:17:01.201Z,206.67
2019-01-26T01:19:29.546Z,196.43
2019-01-26T01:21:57.877Z,167.30
2019-01-26T01:24:26.187Z,195.83
2019-01-26T01:26:54.576Z,170.10
2019-01-26T01:29:22.958Z,212.10
2019-01-26T01:31:51.356Z,201.80
2019-01-26T01:34:19.728Z,174.23
2019-01-26T01:36:48.091Z,180.63
2019-01-26T01:39:16.469Z,164.47
2019-01-26T01:41:44.771Z,164.70
2019-01-26T01:44:13.077Z,167.40
2019-01-26T01:46:43.014Z,167.60
2019-01-26T01:49:11.428Z,177.43
2019-01-26T01:51:39.807Z,156.60
2019-01-26T01:54:08.499Z,158.37
2019-01-26T01:56:36.914Z,156.60
2019-01-26T01:59:05.289Z,151.53
2019-01-26T02:01:33.690Z,156.23
2019-01-26T02:04:02.064Z,153.63
2019-01-26T02:06:30.438Z,155.80
2019-01-26T02:08:58.818Z,193.27
2019-01-26T02:11:27.196Z,196.23
2019-01-26T02:13:55.596Z,215.30
2019-01-26T02:16:23.984Z,192.47
2019-01-26T02:18:52.274Z,228.30
2019-01-26T02:21:20.587Z,210.23
2019-01-26T02:23:48.887Z,234.90
2019-01-26T02:26:17.572Z,202.33
2019-01-26T02:28:45.869Z,218.57
2019-01-26T02:31:14.242Z,221.00
2019-01-26T02:33:42.572Z,231.60
2019-01-26T02:36:10.945Z,228.37
2019-01-26T02:38:39.344Z,236.60
2019-01-26T02:41:07.723Z,304.77
2019-01-26T02:43:36.094Z,214.30
2019-01-26T02:46:04.416Z,286.57
2019-01-26T02:48:32.783Z,246.93
2019-01-26T02:51:01.173Z,267.37
2019-01-26T02:53:29.560Z,310.57
2019-01-26T02:55:58.281Z,307.23
2019-01-26T02:58:26.676Z,326.40
2019-01-26T03:00:55.030Z,338.70
2019-01-26T03:03:23.710Z,311.93
2019-01-26T03:05:52.002Z,273.00
2019-01-26T03:08:20.343Z,288.57
2019-01-26T03:10:48.716Z,265.87
2019-01-26T03:13:17.082Z,289.87
2019-01-26T03:15:45.409Z,290.13
2019-01-26T03:18:13.781Z,290.13
2019-01-26T03:20:42.549Z,251.13
2019-01-26T03:23:10.915Z,257.50
2019-01-26T03:25:39.284Z,207.77
2019-01-26T03:28:07.664Z,257.20
2019-01-26T03:30:35.961Z,228.93
2019-01-26T03:33:04.384Z,289.33
2019-01-26T03:35:32.765Z,269.23
2019-01-26T03:38:01.139Z,243.27
2019-01-26T03:40:29.519Z,245.00
2019-01-26T03:42:57.893Z,227.43
2019-01-26T03:45:26.592Z,266.83
2019-01-26T03:47:54.956Z,287.53
2019-01-26T03:50:23.296Z,249.77
2019-01-26T03:52:51.673Z,298.30
2019-01-26T03:55:21.535Z,305.47
2019-01-26T03:57:50.281Z,242.13
2019-01-26T04:00:21.139Z,215.20
2019-01-26T04:02:49.500Z,255.27
2019-01-26T04:05:17.805Z,270.80
2019-01-26T04:07:46.335Z,287.00
2019-01-26T04:10:15.372Z,253.90
2019-01-26T04:12:44.155Z,257.00
2019-01-26T04:15:14.807Z,231.57
2019-01-26T04:17:43.150Z,241.63
2019-01-26T04:20:14.084Z,254.87
2019-01-26T04:22:43.754Z,219.57
2019-01-26T04:25:15.137Z,247.73
2019-01-26T04:27:45.190Z,232.43
2019-01-26T04:30:18.725Z,248.10
2019-01-26T04:32:50.057Z,246.03
2019-01-26T04:35:21.288Z,232.93
2019-01-26T04:37:50.809Z,227.47
2019-01-26T04:40:20.781Z,226.57
2019-01-26T04:42:51.188Z,270.43
2019-01-26T04:45:25.796Z,250.37
2019-01-26T04:47:56.283Z,246.60
2019-01-26T04:50:24.643Z,246.27
2019-01-26T04:52:53.041Z,239.30
2019-01-26T04:55:21.398Z,227.90
2019-01-26T04:57:49.750Z,245.17
2019-01-26T05:00:24.240Z,232.00
2019-01-26T05:02:52.609Z,232.40
2019-01-26T05:05:21.291Z,227.00
2019-01-26T05:07:49.663Z,205.43
2019-01-26T05:10:19.921Z,220.57
2019-01-26T05:12:48.428Z,198.93
2019-01-26T05:15:17.458Z,195.90
2019-01-26T05:17:45.839Z,192.87
2019-01-26T05:20:17.786Z,184.87
2019-01-26T05:22:46.172Z,176.17
2019-01-26T05:25:14.546Z,157.77
2019-01-26T05:27:42.955Z,184.03
2019-01-26T05:30:20.289Z,187.80
2019-01-26T05:32:48.652Z,177.10
2019-01-26T05:35:17.034Z,198.80
2019-01-26T05:37:45.392Z,178.10
2019-01-26T05:40:15.957Z,176.10
2019-01-26T05:42:44.336Z,159.20
2019-01-26T05:45:17.878Z,144.27
2019-01-26T05:47:49.027Z,155.00
2019-01-26T05:50:21.415Z,151.23
2019-01-26T05:52:51.918Z,155.70
2019-01-26T05:55:20.286Z,131.27
2019-01-26T05:57:48.653Z,150.93
2019-01-26T06:00:23.805Z,122.17
2019-01-26T06:02:52.184Z,140.40
2019-01-26T06:05:20.570Z,143.23
2019-01-26T06:07:50.073Z,114.67
2019-01-26T06:10:18.543Z,124.83
2019-01-26T06:12:46.836Z,127.17
2019-01-26T06:15:15.531Z,108.47
2019-01-26T06:17:43.919Z,100.53
2019-01-26T06:20:16.224Z,105.63
2019-01-26T06:22:44.641Z,99.43
2019-01-26T06:25:15.977Z,93.83
2019-01-26T06:27:44.314Z,82.93
2019-01-26T06:30:16.534Z,88.67
2019-01-26T06:32:44.907Z,76.27
2019-01-26T06:35:13.304Z,81.50
2019-01-26T06:37:41.686Z,84.63
2019-01-26T06:40:12.866Z,88.90
2019-01-26T06:42:41.248Z,81.00
2019-01-26T06:45:11.454Z,82.90
2019-01-26T06:47:40.160Z,82.57
2019-01-26T06:50:11.680Z,84.33
2019-01-26T06:52:39.964Z,86.90
2019-01-26T06:55:09.922Z,72.80
2019-01-26T06:57:38.301Z,67.87
2019-01-26T07:00:09.864Z,67.80
2019-01-26T07:02:38.184Z,71.63
2019-01-26T07:05:09.850Z,78.70
2019-01-26T07:07:38.158Z,70.70
2019-01-26T07:10:08.932Z,65.50
2019-01-26T07:12:37.275Z,67.23
2019-01-26T07:15:09.031Z,72.33
2019-01-26T07:17:37.422Z,58.60
2019-01-26T07:20:09.054Z,57.93
2019-01-26T07:22:37.409Z,68.63
2019-01-26T07:25:06.507Z,66.70
2019-01-26T07:27:34.868Z,71.13
2019-01-26T07:30:03.461Z,72.00
2019-01-26T07:32:32.136Z,77.57
2019-01-26T07:35:00.505Z,62.67
2019-01-26T07:37:28.900Z,64.20
2019-01-26T07:39:57.266Z,69.47
2019-01-26T07:42:25.676Z,63.57
2019-01-26T07:44:54.058Z,71.63
2019-01-26T07:47:22.497Z,70.37
2019-01-26T07:49:50.873Z,82.40
2019-01-26T07:52:19.244Z,70.20
2019-01-26T07:54:47.553Z,73.07
2019-01-26T07:57:16.091Z,74.43
2019-01-26T07:59:44.509Z,70.13
2019-01-26T08:02:12.881Z,69.77
2019-01-26T08:04:41.246Z,70.40
2019-01-26T08:07:09.618Z,69.13
2019-01-26T08:09:38.010Z,68.80
2019-01-26T08:12:06.426Z,74.57
2019-01-26T08:14:34.795Z,62.90
2019-01-26T08:17:03.169Z,59.80
2019-01-26T08:19:33.623Z,58.17
2019-01-26T08:22:02.003Z,56.30
2019-01-26T08:24:30.455Z,53.40
2019-01-26T08:26:58.768Z,57.37
2019-01-26T08:29:27.136Z,55.70
2019-01-26T08:31:59.847Z,47.93
2019-01-26T08:34:28.272Z,58.73
2019-01-26T08:36:56.697Z,56.70
2019-01-26T08:39:25.024Z,53.43
2019-01-26T08:41:53.378Z,59.17
2019-01-26T08:44:21.772Z,59.10
2019-01-26T08:46:50.073Z,53.60
2019-01-26T08:49:18.929Z,50.80
2019-01-26T08:51:47.637Z,54.30
2019-01-26T08:54:16.601Z,48.80
2019-01-26T08:56:44.994Z,47.87
2019-01-26T08:59:13.437Z,50.43
2019-01-26T09:01:41.930Z,45.23
2019-01-26T09:04:11.877Z,38.67
2019-01-26T09:06:40.464Z,50.87
2019-01-26T09:09:09.222Z,38.80
2019-01-26T09:11:37.589Z,35.03
2019-01-26T09:14:06.050Z,43.43
2019-01-26T09:16:34.753Z,44.63
2019-01-26T09:19:03.242Z,40.13
2019-01-26T09:21:31.622Z,44.67
2019-01-26T09:23:59.923Z,46.73
2019-01-26T09:26:28.351Z,39.00
2019-01-26T09:28:57.150Z,41.70
2019-01-26T09:31:26.171Z,41.77
2019-01-26T09:33:54.737Z,42.83
2019-01-26T09:36:23.098Z,50.07
2019-01-26T09:38:51.880Z,38.57
2019-01-26T09:41:20.319Z,37.93
2019-01-26T09:43:48.713Z,31.30
2019-01-26T09:46:17.072Z,26.80
2019-01-26T09:48:46.395Z,31.07
2019-01-26T09:51:14.861Z,24.90
2019-01-26T09:53:43.390Z,22.07
2019-01-26T09:56:11.990Z,25.07
2019-01-26T09:58:40.356Z,25.10
2019-01-26T10:01:08.747Z,21.27
2019-01-26T10:03:37.128Z,26.23
2019-01-26T10:06:05.496Z,24.10
2019-01-26T10:08:33.951Z,21.20
2019-01-26T10:11:02.310Z,22.43
2019-01-26T10:13:30.683Z,16.57
2019-01-26T10:15:59.046Z,18.37
2019-01-26T10:18:27.455Z,23.70
2019-01-26T10:20:55.815Z,18.63
2019-01-26T10:23:24.199Z,15.93
2019-01-26T10:25:52.568Z,22.63
2019-01-26T10:28:20.930Z,21.53
2019-01-26T10:30:50.975Z,15.20
2019-01-26T10:33:19.334Z,18.83
2019-01-26T10:35:58.326Z,14.77
2019-01-26T10:38:26.696Z,20.10
2019-01-26T10:40:56.660Z,15.80
2019-01-26T10:43:27.026Z,17.87
2019-01-26T10:45:55.325Z,17.37
2019-01-26T10:48:23.729Z,21.13
2019-01-26T10:50:52.152Z,18.07
2019-01-26T10:53:20.477Z,18.20
2019-01-26T10:55:48.862Z,25.07
2019-01-26T10:58:17.295Z,21.20
2019-01-26T11:00:45.714Z,20.77
2019-01-26T11:03:14.346Z,22.37
2019-01-26T11:05:42.727Z,19.47
2019-01-26T11:08:11.109Z,22.53
2019-01-26T11:10:39.468Z,22.40
2019-01-26T11:13:07.809Z,21.93
2019-01-26T11:15:36.115Z,16.23
2019-01-26T11:18:04.489Z,18.47
2019-01-26T11:20:33.161Z,17.20
2019-01-26T11:23:01.432Z,22.70
2019-01-26T11:25:29.792Z,20.50
2019-01-26T11:27:58.169Z,22.40
2019-01-26T11:30:28.190Z,18.87
2019-01-26T11:32:56.997Z,19.23
2019-01-26T11:35:25.747Z,18.00
2019-01-26T11:37:54.120Z,17.27
2019-01-26T11:40:22.975Z,21.10
2019-01-26T11:42:51.806Z,14.13
2019-01-26T11:45:24.961Z,13.47
2019-01-26T11:47:54.107Z,15.57
2019-01-26T11:50:29.869Z,16.87
2019-01-26T11:52:58.638Z,16.73
2019-01-26T11:55:35.096Z,16.40
2019-01-26T11:58:03.476Z,15.97
2019-01-26T12:00:39.111Z,21.90
2019-01-26T12:03:09.130Z,18.33
2019-01-26T12:05:41.813Z,16.17
2019-01-26T12:08:10.201Z,17.67
2019-01-26T12:10:38.553Z,21.17
2019-01-26T12:13:06.867Z,19.17
2019-01-26T12:15:35.605Z,20.43
2019-01-26T12:18:04.048Z,18.80
2019-01-26T12:20:32.416Z,16.07
2019-01-26T12:23:00.792Z,17.27
2019-01-26T12:25:29.115Z,13.90
2019-01-26T12:27:57.488Z,14.80
2019-01-26T12:30:26.451Z,14.97
2019-01-26T12:32:54.885Z,15.80
2019-01-26T12:35:23.194Z,14.87
2019-01-26T12:37:51.490Z,10.10
2019-01-26T12:40:19.865Z,14.20
2019-01-26T12:42:48.454Z,14.60
2019-01-26T12:45:19.959Z,12.93
2019-01-26T12:47:48.322Z,9.97
2019-01-26T12:50:16.777Z,10.50
2019-01-26T12:52:45.158Z,10.00
2019-01-26T12:55:17.522Z,12.17
2019-01-26T12:57:45.883Z,8.87
2019-01-26T13:00:25.598Z,9.67
2019-01-26T13:02:53.937Z,9.63
2019-01-26T13:05:22.379Z,13.63
2019-01-26T13:07:50.746Z,9.17
2019-01-26T13:10:22.635Z,8.43
2019-01-26T13:12:51.618Z,8.57
2019-01-26T13:15:19.931Z,7.93
2019-01-26T13:17:48.239Z,6.50
2019-01-26T13:20:16.976Z,5.40
2019-01-26T13:22:45.424Z,9.40
2019-01-26T13:25:16.805Z,7.20
2019-01-26T13:27:45.169Z,7.30
2019-01-26T13:30:19.476Z,7.20
2019-01-26T13:32:47.850Z,4.40
2019-01-26T13:35:16.250Z,3.60
2019-01-26T13:37:44.623Z,3.23
2019-01-26T13:40:19.007Z,2.90
2019-01-26T13:42:47.337Z,4.83
2019-01-26T13:45:16.381Z,2.87
2019-01-26T13:47:45.149Z,4.70
2019-01-26T13:50:13.592Z,4.23
2019-01-26T13:52:41.956Z,4.83
2019-01-26T13:55:19.390Z,4.27
2019-01-26T13:57:47.762Z,3.30
2019-01-26T14:00:24.678Z,4.03
2019-01-26T14:02:52.978Z,6.43
2019-01-26T14:05:21.318Z,6.77
2019-01-26T14:07:49.660Z,4.60
2019-01-26T14:10:25.365Z,7.83
2019-01-26T14:12:53.727Z,9.10
2019-01-26T14:15:25.660Z,4.87
2019-01-26T14:17:54.032Z,7.97
2019-01-26T14:20:27.535Z,6.23
2019-01-26T14:22:55.902Z,9.20
2019-01-26T14:25:24.829Z,5.73
2019-01-26T14:27:53.187Z,8.07
2019-01-26T14:30:27.512Z,6.53
2019-01-26T14:32:55.972Z,7.53
2019-01-26T14:35:24.335Z,8.80
2019-01-26T14:37:52.747Z,9.13
2019-01-26T14:40:21.171Z,6.17
2019-01-26T14:42:54.124Z,9.97
2019-01-26T14:45:19.754Z,9.00
2019-01-26T14:47:48.341Z,6.40
2019-01-26T14:50:18.368Z,8.77
2019-01-26T14:52:46.811Z,7.33
2019-01-26T14:55:18.035Z,6.70
2019-01-26T14:57:46.370Z,5.80
2019-01-26T15:00:20.584Z,10.73
2019-01-26T15:02:48.873Z,8.03
2019-01-26T15:05:17.570Z,11.10
2019-01-26T15:07:45.947Z,10.77
2019-01-26T15:10:14.250Z,9.90
2019-01-26T15:12:45.086Z,13.90
2019-01-26T15:15:19.126Z,9.37
2019-01-26T15:17:47.524Z,9.03
2019-01-26T15:20:18.983Z,8.63
2019-01-26T15:22:47.331Z,6.00
2019-01-26T15:25:15.708Z,8.03
2019-01-26T15:27:44.066Z,6.87
2019-01-26T15:30:21.335Z,10.20
2019-01-26T15:32:49.764Z,6.93
2019-01-26T15:35:18.171Z,7.17
2019-01-26T15:37:46.517Z,5.70
2019-01-26T15:40:14.901Z,9.33
2019-01-26T15:42:43.712Z,12.60
2019-01-26T15:45:23.625Z,13.70
2019-01-26T15:47:52.029Z,13.30
2019-01-26T15:50:20.774Z,16.47
2019-01-26T15:52:49.153Z,15.13
2019-01-26T15:55:22.646Z,19.50
2019-01-26T15:57:51.012Z,20.83
2019-01-26T16:00:22.247Z,26.47
2019-01-26T16:02:50.637Z,22.33
2019-01-26T16:05:18.947Z,26.83
2019-01-26T16:07:47.716Z,25.43
2019-01-26T16:10:21.016Z,25.63
2019-01-26T16:12:49.427Z,25.07
2019-01-26T16:15:23.888Z,24.90
2019-01-26T16:17:52.867Z,22.57
2019-01-26T16:20:21.894Z,21.53
2019-01-26T16:22:50.281Z,21.23
2019-01-26T16:25:18.691Z,17.57
2019-01-26T16:27:47.059Z,20.03
2019-01-26T16:30:18.564Z,17.53
2019-01-26T16:32:47.203Z,16.30
2019-01-26T16:35:17.185Z,16.77
2019-01-26T16:37:45.491Z,17.20
2019-01-26T16:40:22.965Z,16.63
2019-01-26T16:42:51.364Z,17.67
2019-01-26T16:45:22.646Z,20.60
2019-01-26T16:47:51.027Z,18.13
2019-01-26T16:50:27.562Z,19.10
2019-01-26T16:52:52.243Z,23.03
2019-01-26T16:55:21.130Z,18.97
2019-01-26T16:57:49.486Z,17.93
2019-01-26T17:00:21.355Z,19.30
2019-01-26T17:02:49.836Z,19.17
2019-01-26T17:05:18.233Z,18.07
2019-01-26T17:07:46.655Z,18.47
2019-01-26T17:10:17.567Z,18.90
2019-01-26T17:12:46.213Z,16.63
2019-01-26T17:15:14.609Z,14.50
2019-01-26T17:17:42.869Z,15.53
2019-01-26T17:20:23.568Z,15.73
2019-01-26T17:22:51.922Z,14.03
2019-01-26T17:25:20.232Z,14.73
2019-01-26T17:27:48.888Z,13.53
2019-01-26T17:30:22.978Z,14.10
2019-01-26T17:32:51.345Z,13.90
2019-01-26T17:35:19.683Z,12.30
2019-01-26T17:37:48.060Z,13.33
2019-01-26T17:40:18.702Z,13.67
2019-01-26T17:42:47.084Z,10.73
2019-01-26T17:45:17.608Z,11.87
2019-01-26T17:47:46.069Z,11.23
2019-01-26T17:50:23.366Z,10.00
2019-01-26T17:52:51.732Z,8.83
2019-01-26T17:55:20.017Z,7.43
2019-01-26T17:57:48.400Z,7.07
2019-01-26T18:00:27.503Z,9.10
2019-01-26T18:02:55.915Z,9.47
2019-01-26T18:05:24.284Z,9.70
2019-01-26T18:07:52.647Z,7.40
2019-01-26T18:10:25.822Z,8.27
2019-01-26T18:13:13.659Z,7.33
2019-01-26T18:15:42.500Z,6.40
2019-01-26T18:18:10.858Z,5.13
2019-01-26T18:20:39.279Z,5.83
2019-01-26T18:23:07.712Z,8.33
2019-01-26T18:25:37.714Z,5.70
2019-01-26T18:28:06.119Z,5.50
2019-01-26T18:30:37.223Z,7.13
2019-01-26T18:33:05.649Z,6.63
2019-01-26T18:35:34.028Z,6.70
2019-01-26T18:38:02.438Z,6.20
2019-01-26T18:40:30.775Z,5.33
2019-01-26T18:42:59.101Z,5.27
2019-01-26T18:45:32.333Z,5.70
2019-01-26T18:48:00.704Z,5.10
2019-01-26T18:50:43.667Z,6.60
2019-01-26T18:53:12.013Z,5.87
2019-01-26T18:55:40.362Z,8.47
2019-01-26T18:58:10.413Z,4.87
2019-01-26T19:00:41.874Z,4.23
2019-01-26T19:03:25.545Z,4.60
2019-01-26T19:06:15.107Z,5.57
2019-01-26T19:08:43.563Z,5.70
2019-01-26T19:11:11.969Z,6.13
2019-01-26T19:13:40.334Z,3.50
2019-01-26T19:16:08.735Z,3.40
2019-01-26T19:18:37.108Z,5.20
2019-01-26T19:21:05.532Z,3.80
2019-01-26T19:23:33.860Z,4.80
2019-01-26T19:26:02.480Z,4.80
2019-01-26T19:28:30.851Z,3.83
2019-01-26T19:30:59.237Z,4.50
2019-01-26T19:33:27.923Z,4.13
2019-01-26T19:35:56.277Z,3.93
2019-01-26T19:38:24.582Z,4.03
2019-01-26T19:40:52.969Z,3.90
2019-01-26T19:43:21.348Z,4.40
2019-01-26T19:45:49.741Z,3.77
2019-01-26T19:48:18.070Z,5.20
2019-01-26T19:50:46.467Z,3.23
2019-01-26T19:53:15.217Z,5.50
2019-01-26T19:55:43.582Z,4.73
2019-01-26T19:58:11.984Z,3.73
2019-01-26T20:00:40.344Z,3.23
2019-01-26T20:03:08.703Z,2.43
2019-01-26T20:05:37.173Z,4.27
2019-01-26T20:08:05.485Z,5.07
2019-01-26T20:10:34.248Z,4.23
2019-01-26T20:13:02.610Z,3.10
2019-01-26T20:15:30.908Z,3.63
2019-01-26T20:17:59.320Z,4.73
2019-01-26T20:20:36.696Z,6.67
2019-01-26T20:23:05.085Z,6.40
2019-01-26T20:25:33.440Z,4.57
2019-01-26T20:28:01.736Z,6.60
2019-01-26T20:30:32.051Z,6.07
2019-01-26T20:33:00.421Z,4.50
2019-01-26T20:35:28.815Z,5.20
2019-01-26T20:37:57.100Z,7.77
2019-01-26T20:40:25.549Z,6.27
2019-01-26T20:42:54.232Z,8.53
2019-01-26T20:45:24.954Z,5.53
2019-01-26T20:47:53.336Z,4.43
2019-01-26T20:50:22.075Z,5.70
2019-01-26T20:52:50.453Z,7.57
2019-01-26T20:55:18.771Z,5.67
2019-01-26T20:57:47.362Z,7.70
2019-01-26T21:00:24.194Z,7.50
2019-01-26T21:02:52.845Z,5.93
2019-01-26T21:05:21.295Z,6.77
2019-01-26T21:07:50.061Z,5.80
2019-01-26T21:10:20.438Z,5.93
2019-01-26T21:12:50.044Z,6.20
2019-01-26T21:15:18.720Z,5.20
2019-01-26T21:17:47.150Z,5.63
2019-01-26T21:20:17.778Z,7.87
2019-01-26T21:22:46.308Z,5.30
2019-01-26T21:25:14.703Z,5.50
2019-01-26T21:27:43.061Z,3.57
2019-01-26T21:30:26.111Z,6.63
2019-01-26T21:32:54.440Z,4.53
2019-01-26T21:35:24.504Z,4.27
2019-01-26T21:37:52.940Z,3.57
2019-01-26T21:40:26.478Z,4.10
2019-01-26T21:42:54.823Z,3.00
2019-01-26T21:45:23.201Z,5.27
2019-01-26T21:47:51.528Z,3.97
2019-01-26T21:50:22.145Z,4.70
2019-01-26T21:52:53.623Z,6.03
2019-01-26T21:55:21.999Z,6.03
2019-01-26T21:57:50.361Z,4.70
2019-01-26T22:00:24.259Z,3.90
2019-01-26T22:02:52.693Z,4.90
2019-01-26T22:05:21.306Z,4.33
2019-01-26T22:07:49.693Z,6.40
2019-01-26T22:10:20.372Z,6.20
2019-01-26T22:12:48.737Z,5.77
2019-01-26T22:15:19.158Z,5.37
2019-01-26T22:17:47.686Z,6.23
2019-01-26T22:20:19.127Z,5.23
2019-01-26T22:22:48.428Z,6.43
2019-01-26T22:25:16.734Z,5.10
2019-01-26T22:27:45.091Z,9.47
2019-01-26T22:30:16.538Z,6.57
2019-01-26T22:32:44.918Z,6.40
2019-01-26T22:35:13.596Z,6.43
2019-01-26T22:37:41.914Z,6.43
2019-01-26T22:40:13.710Z,8.37
2019-01-26T22:42:42.068Z,7.47
2019-01-26T22:45:11.782Z,5.30
2019-01-26T22:47:40.151Z,7.90
2019-01-26T22:50:11.815Z,7.67
2019-01-26T22:52:40.253Z,6.60
2019-01-26T22:55:11.105Z,6.87
2019-01-26T22:57:39.805Z,5.20
2019-01-26T23:00:11.496Z,6.13
2019-01-26T23:02:40.092Z,3.90
2019-01-26T23:05:14.343Z,5.47
2019-01-26T23:07:42.894Z,4.53
2019-01-26T23:10:17.532Z,5.60
2019-01-26T23:12:51.874Z,4.93
2019-01-26T23:15:46.187Z,4.37
2019-01-26T23:18:32.958Z,4.90
2019-01-26T23:21:13.420Z,5.07
2019-01-26T23:23:53.360Z,4.90
2019-01-26T23:26:24.986Z,4.97
2019-01-26T23:29:05.548Z,4.57
2019-01-26T23:31:33.972Z,4.27
2019-01-26T23:34:02.214Z,5.60
2019-01-26T23:36:30.650Z,4.50
2019-01-26T23:39:02.542Z,4.13
2019-01-26T23:41:29.703Z,3.60
2019-01-26T23:43:58.072Z,4.67
2019-01-26T23:46:26.342Z,4.03
2019-01-26T23:48:55.019Z,4.37
2019-01-26T23:51:23.711Z,3.37
2019-01-26T23:53:52.081Z,4.03
2019-01-26T23:56:20.527Z,5.73
2019-01-26T23:58:48.897Z,6.77
